Time;durP1;ratioP1;P1;durP2;ratioP2;P2;SDS_P1;SDS_P2;PMS_P1;PMS_P2;Temp;Humidity;BMP_temperature;BMP_pressure;BME280_temperature;BME280_humidity;BME280_pressure;Samples;Min_cycle;Max_cycle;Signal;HPM_P1;HPM_P2
2022/01/27 00:02:44;;;;;;;;;;;21.00;35.60;;;;;;6305226;28;20735;-43
2022/01/27 00:05:49;;;;;;;;;;;20.80;35.60;;;;;;6304273;28;19928;-45
2022/01/27 00:08:55;;;;;;;;;;;20.90;35.50;;;;;;6289860;28;19939;-43
2022/01/27 00:11:58;;;;;;;;;;;21.00;35.60;;;;;;6306723;28;19938;-42
2022/01/27 00:15:09;;;;;;;;;;;21.10;35.60;;;;;;6302091;28;19927;-43
2022/01/27 00:18:15;;;;;;;;;;;20.70;35.40;;;;;;6302556;28;19975;-42
2022/01/27 00:21:18;;;;;;;;;;;20.60;35.40;;;;;;6308219;28;19928;-42
2022/01/27 00:24:19;;;;;;;;;;;21.10;35.60;;;;;;6295144;27;20010;-43
2022/01/27 00:27:21;;;;;;;;;;;20.60;35.50;;;;;;6306257;28;19934;-44
2022/01/27 00:30:22;;;;;;;;;;;20.90;35.80;;;;;;6308959;28;19954;-43
2022/01/27 00:33:25;;;;;;;;;;;20.60;35.60;;;;;;6290289;28;20682;-42
2022/01/27 00:36:26;;;;;;;;;;;20.70;35.50;;;;;;6311528;28;20028;-44
2022/01/27 00:39:27;;;;;;;;;;;20.60;35.40;;;;;;6313107;28;20062;-43
2022/01/27 00:42:29;;;;;;;;;;;20.60;35.60;;;;;;6309376;28;19928;-43
2022/01/27 00:45:32;;;;;;;;;;;21.00;36.40;;;;;;6301459;28;19935;-42
2022/01/27 00:48:34;;;;;;;;;;;20.60;35.60;;;;;;6314491;28;19932;-43
2022/01/27 00:51:39;;;;;;;;;;;20.40;35.50;;;;;;6311528;28;19982;-44
2022/01/27 00:54:40;;;;;;;;;;;21.30;36.00;;;;;;6310830;28;19931;-43
2022/01/27 00:57:59;;;;;;;;;;;21.00;35.60;;;;;;6297213;28;19935;-42
2022/01/27 01:01:06;;;;;;;;;;;21.00;35.90;;;;;;6307201;28;19932;-43
2022/01/27 01:04:10;;;;;;;;;;;20.50;35.60;;;;;;6319296;28;19935;-43
2022/01/27 01:07:13;;;;;;;;;;;20.60;35.50;;;;;;6296370;28;19928;-45
2022/01/27 01:10:59;;;;;;;;;;;21.00;35.80;;;;;;6316442;28;20413;-43
2022/01/27 01:17:19;;;;;;;;;;;21.10;34.10;;;;;;6297284;28;20796;-43
2022/01/27 01:20:29;;;;;;;;;;;20.50;35.50;;;;;;6311458;28;19928;-42
2022/01/27 01:30:09;;;;;;;;;;;20.70;35.70;;;;;;6313079;28;19932;-42
2022/01/27 01:33:19;;;;;;;;;;;21.00;35.60;;;;;;6307695;28;19967;-42
2022/01/27 01:36:35;;;;;;;;;;;20.60;35.90;;;;;;6317507;28;20623;-42
2022/01/27 01:39:37;;;;;;;;;;;20.70;35.60;;;;;;6316622;28;20577;-42
2022/01/27 01:42:38;;;;;;;;;;;20.60;35.60;;;;;;6313761;28;20008;-42
2022/01/27 01:45:40;;;;;;;;;;;20.70;35.80;;;;;;6301221;28;20988;-44
2022/01/27 01:48:41;;;;;;;;;;;20.70;35.60;;;;;;6297400;28;19934;-42
2022/01/27 01:51:43;;;;;;;;;;;21.00;35.80;;;;;;6319292;28;19927;-41
2022/01/27 01:54:45;;;;;;;;;;;20.80;35.80;;;;;;6319207;28;19966;-42
2022/01/27 01:57:46;;;;;;;;;;;21.30;36.20;;;;;;6317362;28;19963;-45
2022/01/27 02:00:47;;;;;;;;;;;20.50;35.70;;;;;;6316818;28;20685;-42
2022/01/27 02:03:49;;;;;;;;;;;20.90;35.90;;;;;;6314658;28;19931;-42
2022/01/27 02:06:55;;;;;;;;;;;20.60;35.80;;;;;;6311733;28;19932;-42
2022/01/27 02:10:09;;;;;;;;;;;20.40;35.60;;;;;;6315557;28;20857;-43
2022/01/27 02:19:40;;;;;;;;;;;20.40;35.60;;;;;;6310206;28;19931;-43
2022/01/27 02:22:42;;;;;;;;;;;20.60;35.70;;;;;;6316327;28;20739;-42
2022/01/27 02:25:44;;;;;;;;;;;20.80;35.90;;;;;;6314670;28;20042;-44
2022/01/27 02:28:45;;;;;;;;;;;20.70;35.90;;;;;;6295885;28;19935;-44
2022/01/27 02:31:47;;;;;;;;;;;20.50;36.50;;;;;;6311091;28;19932;-41
2022/01/27 02:34:48;;;;;;;;;;;20.50;35.70;;;;;;6310796;28;20800;-42
2022/01/27 02:37:51;;;;;;;;;;;20.90;36.20;;;;;;6310984;28;19934;-43
2022/01/27 02:40:54;;;;;;;;;;;20.90;35.50;;;;;;6305386;28;20022;-42
2022/01/27 02:43:55;;;;;;;;;;;20.80;35.80;;;;;;6296386;28;20548;-42
2022/01/27 02:46:57;;;;;;;;;;;20.40;35.70;;;;;;6294986;28;20696;-41
2022/01/27 02:49:58;;;;;;;;;;;20.30;35.80;;;;;;6309497;28;20099;-43
2022/01/27 02:53:00;;;;;;;;;;;20.50;35.80;;;;;;6308901;27;20397;-42
2022/01/27 02:56:02;;;;;;;;;;;20.50;35.80;;;;;;6308332;28;19961;-41
2022/01/27 02:59:03;;;;;;;;;;;21.10;36.00;;;;;;6309385;28;20030;-42
2022/01/27 03:02:05;;;;;;;;;;;20.50;35.90;;;;;;6310245;28;20454;-42
2022/01/27 03:05:06;;;;;;;;;;;20.50;35.80;;;;;;6308515;28;20156;-42
2022/01/27 03:08:08;;;;;;;;;;;20.40;35.90;;;;;;6310537;28;20127;-42
2022/01/27 03:11:12;;;;;;;;;;;20.60;36.00;;;;;;6310639;28;19932;-42
2022/01/27 03:14:14;;;;;;;;;;;20.50;35.70;;;;;;6312525;28;19928;-42
2022/01/27 03:17:15;;;;;;;;;;;20.60;35.80;;;;;;6311626;28;20416;-42
2022/01/27 03:20:17;;;;;;;;;;;20.50;35.90;;;;;;6314684;28;20149;-43
2022/01/27 03:23:19;;;;;;;;;;;20.30;35.90;;;;;;6310963;28;20317;-41
2022/01/27 03:26:21;;;;;;;;;;;20.40;35.80;;;;;;6308007;28;20354;-43
2022/01/27 03:29:23;;;;;;;;;;;21.00;36.20;;;;;;6301272;28;20322;-42
2022/01/27 03:32:26;;;;;;;;;;;20.40;35.80;;;;;;6316209;28;20803;-42
2022/01/27 03:35:27;;;;;;;;;;;20.50;35.80;;;;;;6318869;28;19931;-42
2022/01/27 03:38:29;;;;;;;;;;;20.70;36.00;;;;;;6318308;28;19931;-44
2022/01/27 03:41:33;;;;;;;;;;;20.70;35.90;;;;;;6311582;28;20112;-44
2022/01/27 03:44:34;;;;;;;;;;;20.50;36.10;;;;;;6299360;28;20065;-43
2022/01/27 03:47:35;;;;;;;;;;;20.10;35.80;;;;;;6318466;28;19939;-44
2022/01/27 03:50:37;;;;;;;;;;;20.40;35.90;;;;;;6318013;28;19931;-43
2022/01/27 03:53:39;;;;;;;;;;;20.40;36.00;;;;;;6317316;28;19935;-44
2022/01/27 03:56:40;;;;;;;;;;;20.20;35.90;;;;;;6319818;28;19935;-43
2022/01/27 03:59:42;;;;;;;;;;;20.50;35.80;;;;;;6299649;28;19971;-42
2022/01/27 04:02:55;;;;;;;;;;;20.40;35.90;;;;;;6315921;28;19967;-42
2022/01/27 04:06:03;;;;;;;;;;;20.30;35.90;;;;;;6319304;28;20389;-42
2022/01/27 04:09:06;;;;;;;;;;;21.20;36.30;;;;;;6324282;28;20009;-43
2022/01/27 04:12:08;;;;;;;;;;;20.50;36.00;;;;;;6309551;28;19986;-44
2022/01/27 04:15:09;;;;;;;;;;;20.40;35.90;;;;;;6320640;28;20432;-42
2022/01/27 04:18:10;;;;;;;;;;;20.30;35.90;;;;;;6319603;28;19978;-45
2022/01/27 04:21:12;;;;;;;;;;;20.30;35.90;;;;;;6321768;28;20108;-43
2022/01/27 04:24:16;;;;;;;;;;;20.50;36.00;;;;;;6324439;28;20017;-44
2022/01/27 04:27:22;;;;;;;;;;;20.80;36.20;;;;;;6319790;28;19985;-43
2022/01/27 04:30:26;;;;;;;;;;;20.60;36.20;;;;;;6317527;28;19932;-44
2022/01/27 04:33:30;;;;;;;;;;;20.60;36.10;;;;;;6325224;28;19971;-42
2022/01/27 04:36:34;;;;;;;;;;;20.60;36.20;;;;;;6325625;28;19939;-44
2022/01/27 04:39:42;;;;;;;;;;;20.40;36.10;;;;;;6328329;28;20705;-43
2022/01/27 04:42:53;;;;;;;;;;;20.70;36.10;;;;;;6325311;28;20053;-45
2022/01/27 04:46:03;;;;;;;;;;;20.40;36.00;;;;;;6308468;28;20856;-43
2022/01/27 04:49:07;;;;;;;;;;;20.50;35.70;;;;;;6316182;28;20046;-46
2022/01/27 04:52:09;;;;;;;;;;;20.50;36.20;;;;;;6317718;28;20508;-45
2022/01/27 04:55:13;;;;;;;;;;;20.50;36.00;;;;;;6318593;28;20874;-42
2022/01/27 04:58:19;;;;;;;;;;;20.40;36.00;;;;;;6319778;28;19927;-43
2022/01/27 05:01:26;;;;;;;;;;;20.80;36.20;;;;;;6303221;28;19959;-44
2022/01/27 05:04:33;;;;;;;;;;;20.90;36.30;;;;;;6302169;28;20000;-45
2022/01/27 05:07:34;;;;;;;;;;;20.20;35.90;;;;;;6310738;28;19932;-44
2022/01/27 05:10:36;;;;;;;;;;;20.40;36.20;;;;;;6319704;28;19934;-42
2022/01/27 05:13:42;;;;;;;;;;;20.40;36.10;;;;;;6321491;28;20649;-43
2022/01/27 05:16:43;;;;;;;;;;;20.50;36.10;;;;;;6316223;28;19994;-46
2022/01/27 05:19:47;;;;;;;;;;;20.30;36.00;;;;;;6310943;28;20950;-41
2022/01/27 05:22:49;;;;;;;;;;;20.70;36.40;;;;;;6312343;28;20768;-42
2022/01/27 05:25:51;;;;;;;;;;;20.30;36.10;;;;;;6307606;28;19932;-43
2022/01/27 05:28:52;;;;;;;;;;;20.60;36.40;;;;;;6302984;28;21083;-44
2022/01/27 05:31:53;;;;;;;;;;;20.70;36.30;;;;;;6311850;28;20034;-42
2022/01/27 05:34:55;;;;;;;;;;;20.50;36.30;;;;;;6309966;28;19932;-45
2022/01/27 05:37:56;;;;;;;;;;;20.10;36.00;;;;;;6315856;28;20499;-42
2022/01/27 05:40:58;;;;;;;;;;;20.60;36.20;;;;;;6311122;28;20013;-42
2022/01/27 05:43:59;;;;;;;;;;;20.60;36.30;;;;;;6309446;28;20026;-45
2022/01/27 05:47:01;;;;;;;;;;;20.50;36.20;;;;;;6307014;28;20233;-42
2022/01/27 05:50:03;;;;;;;;;;;20.10;36.00;;;;;;6301986;28;20489;-41
2022/01/27 05:53:04;;;;;;;;;;;20.40;36.10;;;;;;6304301;28;19938;-43
2022/01/27 05:56:06;;;;;;;;;;;20.20;36.10;;;;;;6304449;28;20527;-42
2022/01/27 05:59:08;;;;;;;;;;;20.50;36.20;;;;;;6310539;28;19942;-43
2022/01/27 06:02:09;;;;;;;;;;;21.00;36.60;;;;;;6312536;28;20042;-44
2022/01/27 06:05:11;;;;;;;;;;;20.50;36.20;;;;;;6311304;28;20672;-44
2022/01/27 06:08:12;;;;;;;;;;;20.10;36.00;;;;;;6299237;28;19962;-42
2022/01/27 06:11:14;;;;;;;;;;;20.60;36.30;;;;;;6302665;28;19927;-42
2022/01/27 06:14:16;;;;;;;;;;;20.30;36.20;;;;;;6306956;28;19934;-42
2022/01/27 06:17:17;;;;;;;;;;;20.20;36.10;;;;;;6307184;28;19985;-42
2022/01/27 06:20:19;;;;;;;;;;;20.20;36.20;;;;;;6297379;28;19931;-43
2022/01/27 06:23:21;;;;;;;;;;;20.90;36.50;;;;;;6291692;28;20059;-43
2022/01/27 06:26:23;;;;;;;;;;;20.20;36.30;;;;;;6306055;28;20016;-43
2022/01/27 06:29:24;;;;;;;;;;;20.50;36.30;;;;;;6306119;27;19927;-44
2022/01/27 06:32:26;;;;;;;;;;;21.00;36.60;;;;;;6303986;28;19928;-45
2022/01/27 06:35:27;;;;;;;;;;;20.10;36.30;;;;;;6313620;28;20047;-44
2022/01/27 06:38:28;;;;;;;;;;;20.40;36.30;;;;;;6312326;28;19967;-43
2022/01/27 06:41:30;;;;;;;;;;;20.50;36.50;;;;;;6302056;28;19938;-43
2022/01/27 06:44:32;;;;;;;;;;;20.10;36.10;;;;;;6307629;28;19931;-42
2022/01/27 06:47:33;;;;;;;;;;;19.90;36.10;;;;;;6304077;28;20705;-42
2022/01/27 06:50:37;;;;;;;;;;;20.10;36.00;;;;;;6301113;28;19971;-43
2022/01/27 06:53:38;;;;;;;;;;;20.20;36.00;;;;;;6293402;28;21828;-43
2022/01/27 06:56:40;;;;;;;;;;;20.20;36.10;;;;;;6294492;28;20032;-42
2022/01/27 06:59:42;;;;;;;;;;;20.80;36.20;;;;;;6297437;28;19936;-44
2022/01/27 07:02:43;;;;;;;;;;;20.90;36.10;;;;;;6291530;28;20760;-43
2022/01/27 07:05:45;;;;;;;;;;;20.60;36.00;;;;;;6294589;28;19963;-44
2022/01/27 07:08:46;;;;;;;;;;;20.50;35.90;;;;;;6279274;28;19934;-43
2022/01/27 07:11:48;;;;;;;;;;;20.70;35.90;;;;;;6300698;28;19923;-43
2022/01/27 07:14:49;;;;;;;;;;;20.50;35.80;;;;;;6289735;28;20078;-43
2022/01/27 07:17:51;;;;;;;;;;;20.80;35.90;;;;;;6285632;28;19978;-43
2022/01/27 07:20:52;;;;;;;;;;;20.30;35.50;;;;;;6290471;28;20017;-44
2022/01/27 07:23:53;;;;;;;;;;;20.60;35.80;;;;;;6279052;28;20545;-42
2022/01/27 07:26:55;;;;;;;;;;;20.50;35.60;;;;;;6283199;28;19932;-43
2022/01/27 07:29:57;;;;;;;;;;;20.40;35.30;;;;;;6261206;28;19932;-46
2022/01/27 07:32:58;;;;;;;;;;;21.00;35.60;;;;;;6267397;28;19936;-44
2022/01/27 07:35:59;;;;;;;;;;;21.10;35.60;;;;;;6269526;28;20160;-45
2022/01/27 07:39:01;;;;;;;;;;;20.70;35.40;;;;;;6269334;28;19938;-43
2022/01/27 07:42:03;;;;;;;;;;;21.10;35.70;;;;;;6271847;27;20010;-43
2022/01/27 07:45:09;;;;;;;;;;;20.60;35.20;;;;;;6263956;28;19932;-42
2022/01/27 07:48:10;;;;;;;;;;;20.80;35.20;;;;;;6241513;28;19936;-43
2022/01/27 07:51:12;;;;;;;;;;;20.70;35.20;;;;;;6208956;28;19931;-43
2022/01/27 07:54:13;;;;;;;;;;;21.00;35.40;;;;;;6210697;28;19932;-43
2022/01/27 07:57:16;;;;;;;;;;;21.70;35.60;;;;;;6228451;28;19931;-44
2022/01/27 08:00:18;;;;;;;;;;;21.10;35.30;;;;;;6199191;28;19939;-42
2022/01/27 08:03:19;;;;;;;;;;;20.80;35.40;;;;;;6181330;28;19938;-43
2022/01/27 08:06:22;;;;;;;;;;;21.00;35.10;;;;;;6189237;28;20744;-45
2022/01/27 08:09:23;;;;;;;;;;;21.70;34.30;;;;;;6195048;28;19932;-46
2022/01/27 08:12:25;;;;;;;;;;;21.20;35.10;;;;;;6211486;28;19978;-43
2022/01/27 08:15:27;;;;;;;;;;;21.50;35.60;;;;;;6195705;28;19935;-44
2022/01/27 08:18:28;;;;;;;;;;;21.30;35.30;;;;;;6188666;28;20142;-44
2022/01/27 08:21:30;;;;;;;;;;;21.40;35.30;;;;;;6194046;28;21521;-43
2022/01/27 08:24:31;;;;;;;;;;;21.30;35.10;;;;;;6210238;28;19931;-46
2022/01/27 08:27:34;;;;;;;;;;;21.50;35.30;;;;;;6192859;28;20066;-46
2022/01/27 08:30:42;;;;;;;;;;;21.80;35.30;;;;;;6194810;28;19963;-45
2022/01/27 08:33:43;;;;;;;;;;;21.00;34.80;;;;;;6191326;28;19932;-44
2022/01/27 08:36:45;;;;;;;;;;;21.30;35.00;;;;;;6195482;28;20058;-47
2022/01/27 08:39:46;;;;;;;;;;;21.50;35.00;;;;;;6199916;28;20097;-44
2022/01/27 08:42:48;;;;;;;;;;;21.10;34.70;;;;;;6208516;28;19931;-45
2022/01/27 08:45:50;;;;;;;;;;;21.90;35.10;;;;;;6204011;28;19932;-45
2022/01/27 08:48:51;;;;;;;;;;;21.60;34.90;;;;;;6205756;28;21089;-44
2022/01/27 08:51:53;;;;;;;;;;;21.60;35.00;;;;;;6218540;28;20808;-43
2022/01/27 08:55:21;;;;;;;;;;;22.10;35.00;;;;;;6217105;28;19938;-42
2022/01/27 08:58:25;;;;;;;;;;;21.60;33.50;;;;;;6206814;28;20030;-43
2022/01/27 09:01:27;;;;;;;;;;;21.80;35.50;;;;;;6206697;28;20031;-41
2022/01/27 09:04:28;;;;;;;;;;;21.70;34.60;;;;;;6187347;28;20058;-44
2022/01/27 09:07:30;;;;;;;;;;;21.40;34.60;;;;;;6185339;28;21127;-42
2022/01/27 09:10:32;;;;;;;;;;;21.70;34.60;;;;;;6187543;28;22069;-41
2022/01/27 09:13:36;;;;;;;;;;;21.40;34.60;;;;;;6209925;28;19931;-44
2022/01/27 09:16:37;;;;;;;;;;;21.90;34.70;;;;;;6208270;28;19936;-42
2022/01/27 09:19:58;;;;;;;;;;;22.10;34.80;;;;;;6187165;28;20042;-42
2022/01/27 09:23:02;;;;;;;;;;;21.70;34.70;;;;;;6209510;28;19938;-42
2022/01/27 09:26:07;;;;;;;;;;;21.80;34.50;;;;;;6218464;28;20012;-44
2022/01/27 09:29:09;;;;;;;;;;;21.80;34.50;;;;;;6212426;28;20461;-46
2022/01/27 09:32:11;;;;;;;;;;;21.80;34.60;;;;;;6201432;28;19932;-43
2022/01/27 09:35:14;;;;;;;;;;;22.00;34.20;;;;;;6181042;28;20017;-44
2022/01/27 09:38:16;;;;;;;;;;;21.40;33.90;;;;;;6195978;28;19960;-43
2022/01/27 09:41:19;;;;;;;;;;;21.70;34.20;;;;;;6190314;28;19938;-43
2022/01/27 09:44:24;;;;;;;;;;;22.20;34.40;;;;;;6208158;28;19966;-43
2022/01/27 09:47:29;;;;;;;;;;;22.10;34.40;;;;;;6196088;28;20921;-43
2022/01/27 09:50:46;;;;;;;;;;;21.90;34.30;;;;;;6211521;28;21005;-44
2022/01/27 09:53:47;;;;;;;;;;;22.00;34.30;;;;;;6199077;28;19932;-44
2022/01/27 09:56:49;;;;;;;;;;;21.60;34.20;;;;;;6192226;28;19938;-47
2022/01/27 09:59:51;;;;;;;;;;;21.70;34.20;;;;;;6202393;28;19932;-44
2022/01/27 10:03:01;;;;;;;;;;;21.70;34.00;;;;;;6196530;28;20030;-47
2022/01/27 10:06:12;;;;;;;;;;;22.00;34.10;;;;;;6210536;28;19990;-44
2022/01/27 10:09:15;;;;;;;;;;;22.50;34.30;;;;;;6196029;28;19947;-43
2022/01/27 10:12:23;;;;;;;;;;;22.30;34.20;;;;;;6216521;28;19932;-44
2022/01/27 10:15:25;;;;;;;;;;;21.70;33.80;;;;;;6194269;28;20664;-44
2022/01/27 10:18:34;;;;;;;;;;;22.20;34.00;;;;;;6212027;28;19932;-44
2022/01/27 10:21:36;;;;;;;;;;;21.80;33.90;;;;;;6206954;28;19932;-47
2022/01/27 10:24:37;;;;;;;;;;;22.40;34.10;;;;;;6217219;28;21180;-46
2022/01/27 10:27:58;;;;;;;;;;;22.20;34.00;;;;;;6206426;28;19935;-44
2022/01/27 10:31:02;;;;;;;;;;;22.30;34.10;;;;;;6215064;28;21843;-44
2022/01/27 10:34:04;;;;;;;;;;;22.40;33.90;;;;;;6215839;28;19938;-44
2022/01/27 10:37:06;;;;;;;;;;;22.30;34.00;;;;;;6187229;28;19939;-44
2022/01/27 10:40:08;;;;;;;;;;;22.10;33.90;;;;;;6226125;28;20002;-43
2022/01/27 10:43:11;;;;;;;;;;;22.20;33.90;;;;;;6197960;28;19932;-45
2022/01/27 10:46:22;;;;;;;;;;;22.80;34.40;;;;;;6209383;28;19931;-45
2022/01/27 10:49:28;;;;;;;;;;;22.30;34.00;;;;;;6202226;27;19996;-50
2022/01/27 10:52:35;;;;;;;;;;;22.20;33.90;;;;;;6192477;28;19938;-47
2022/01/27 10:55:37;;;;;;;;;;;22.10;33.70;;;;;;6180875;28;22791;-43
2022/01/27 10:58:41;;;;;;;;;;;22.20;34.00;;;;;;6214187;28;20807;-44
2022/01/27 11:01:44;;;;;;;;;;;22.40;33.80;;;;;;6184565;28;19953;-43
2022/01/27 11:04:46;;;;;;;;;;;22.60;33.90;;;;;;6184961;28;19932;-43
2022/01/27 11:07:47;;;;;;;;;;;22.60;33.90;;;;;;6214769;28;19932;-43
2022/01/27 11:10:50;;;;;;;;;;;21.90;33.60;;;;;;6209229;28;19931;-43
2022/01/27 11:13:52;;;;;;;;;;;22.20;33.70;;;;;;6202664;28;19931;-45
2022/01/27 11:16:57;;;;;;;;;;;22.20;33.80;;;;;;6215237;28;20013;-45
2022/01/27 11:23:45;;;;;;;;;;;22.70;33.80;;;;;;6209759;28;19939;-44
2022/01/27 11:26:45;;;;;;;;;;;22.60;33.90;;;;;;6201712;28;21090;-43
2022/01/27 11:29:49;;;;;;;;;;;23.00;33.90;;;;;;6191885;27;19938;-42
2022/01/27 11:32:55;;;;;;;;;;;22.70;33.80;;;;;;6203469;28;19938;-44
2022/01/27 11:36:23;;;;;;;;;;;22.70;33.70;;;;;;6191328;28;19932;-41
2022/01/27 11:39:44;;;;;;;;;;;22.70;33.90;;;;;;6224314;28;19932;-42
2022/01/27 11:42:59;;;;;;;;;;;22.50;33.70;;;;;;6207939;28;19931;-41
2022/01/27 11:46:15;;;;;;;;;;;22.40;33.60;;;;;;6220756;28;19936;-43
2022/01/27 11:49:31;;;;;;;;;;;23.00;34.50;;;;;;6195312;28;21230;-42
2022/01/27 11:52:35;;;;;;;;;;;22.60;33.80;;;;;;6214215;28;20701;-41
2022/01/27 11:55:43;;;;;;;;;;;22.30;33.60;;;;;;6221784;28;19966;-43
2022/01/27 11:58:47;;;;;;;;;;;22.60;33.50;;;;;;6236525;28;21930;-42
2022/01/27 12:01:56;;;;;;;;;;;22.40;34.00;;;;;;6234954;28;20021;-42
2022/01/27 12:05:11;;;;;;;;;;;22.60;33.60;;;;;;6245634;28;20160;-42
2022/01/27 12:08:20;;;;;;;;;;;22.50;33.60;;;;;;6231061;28;20092;-42
2022/01/27 12:11:48;;;;;;;;;;;22.50;33.50;;;;;;6222980;28;19932;-42
2022/01/27 12:15:06;;;;;;;;;;;22.30;33.40;;;;;;6256014;28;19985;-42
2022/01/27 12:18:17;;;;;;;;;;;22.80;33.70;;;;;;6256312;28;20058;-42
2022/01/27 12:21:29;;;;;;;;;;;22.90;33.70;;;;;;6249269;28;20804;-42
2022/01/27 12:24:32;;;;;;;;;;;22.70;33.60;;;;;;6245109;28;19936;-46
2022/01/27 12:27:33;;;;;;;;;;;22.40;33.50;;;;;;6223106;28;19932;-42
2022/01/27 12:30:56;;;;;;;;;;;22.80;33.80;;;;;;6252916;28;19970;-42
2022/01/27 12:33:58;;;;;;;;;;;23.00;33.60;;;;;;6247656;28;19939;-43
2022/01/27 12:37:02;;;;;;;;;;;22.30;33.50;;;;;;6241808;28;20146;-44
2022/01/27 12:40:05;;;;;;;;;;;22.70;33.60;;;;;;6219233;28;19936;-44
2022/01/27 12:43:14;;;;;;;;;;;22.60;33.50;;;;;;6221069;28;19938;-44
2022/01/27 12:46:15;;;;;;;;;;;22.50;33.50;;;;;;6201206;28;20054;-43
2022/01/27 12:49:35;;;;;;;;;;;22.90;33.80;;;;;;6217775;28;19931;-47
2022/01/27 12:52:40;;;;;;;;;;;22.60;33.50;;;;;;6216540;28;19932;-51
2022/01/27 12:55:43;;;;;;;;;;;22.40;33.50;;;;;;6189831;28;19938;-47
2022/01/27 12:58:45;;;;;;;;;;;22.60;33.60;;;;;;6172608;28;22207;-46
2022/01/27 13:01:54;;;;;;;;;;;22.90;33.80;;;;;;6206011;28;20057;-50
2022/01/27 13:04:56;;;;;;;;;;;22.70;33.60;;;;;;6205821;28;23110;-41
2022/01/27 13:08:00;;;;;;;;;;;22.50;33.50;;;;;;6214702;28;19932;-42
2022/01/27 13:11:09;;;;;;;;;;;22.80;33.60;;;;;;6202553;28;19939;-43
2022/01/27 13:14:10;;;;;;;;;;;22.90;33.70;;;;;;6204965;28;19932;-43
2022/01/27 13:17:17;;;;;;;;;;;22.70;33.70;;;;;;6184945;28;19932;-43
2022/01/27 13:20:24;;;;;;;;;;;22.80;33.60;;;;;;6169871;28;19932;-46
2022/01/27 13:23:30;;;;;;;;;;;22.90;33.60;;;;;;6168071;28;20085;-42
2022/01/27 13:26:32;;;;;;;;;;;22.40;33.30;;;;;;6208205;28;20042;-45
2022/01/27 13:29:41;;;;;;;;;;;22.80;33.60;;;;;;6196838;28;19932;-48
2022/01/27 13:32:42;;;;;;;;;;;22.80;33.60;;;;;;6183617;28;19938;-47
2022/01/27 13:35:44;;;;;;;;;;;22.90;33.60;;;;;;6209475;28;19939;-43
2022/01/27 13:39:00;;;;;;;;;;;22.50;33.40;;;;;;6195950;27;21081;-45
2022/01/27 13:42:07;;;;;;;;;;;22.70;33.40;;;;;;6220965;28;21642;-46
2022/01/27 13:45:10;;;;;;;;;;;23.00;33.60;;;;;;6204564;28;19931;-49
2022/01/27 13:48:19;;;;;;;;;;;22.70;33.50;;;;;;6190091;28;20002;-43
2022/01/27 13:51:22;;;;;;;;;;;22.90;33.50;;;;;;6197280;28;19931;-44
2022/01/27 13:54:24;;;;;;;;;;;22.90;33.70;;;;;;6182835;28;19961;-44
2022/01/27 13:57:34;;;;;;;;;;;23.10;33.60;;;;;;6177085;28;20005;-45
2022/01/27 14:00:36;;;;;;;;;;;22.90;33.50;;;;;;6176241;28;19931;-46
2022/01/27 14:03:40;;;;;;;;;;;23.00;33.60;;;;;;6177454;28;19978;-43
2022/01/27 14:06:49;;;;;;;;;;;22.90;33.50;;;;;;6195229;28;19932;-43
2022/01/27 14:09:53;;;;;;;;;;;22.90;33.50;;;;;;6201021;28;19932;-44
2022/01/27 14:13:00;;;;;;;;;;;22.70;33.30;;;;;;6211954;28;20047;-44
2022/01/27 14:16:01;;;;;;;;;;;22.50;33.30;;;;;;6211946;27;19939;-44
2022/01/27 14:19:12;;;;;;;;;;;22.90;33.50;;;;;;6201114;28;19938;-46
2022/01/27 14:22:15;;;;;;;;;;;23.00;33.00;;;;;;6208504;28;20298;-43
2022/01/27 14:25:36;;;;;;;;;;;23.20;33.60;;;;;;6189258;28;19931;-45
2022/01/27 14:28:38;;;;;;;;;;;23.10;33.40;;;;;;6208313;28;20353;-44
2022/01/27 14:31:43;;;;;;;;;;;22.70;33.30;;;;;;6207716;28;19932;-45
2022/01/27 14:34:47;;;;;;;;;;;22.90;33.30;;;;;;6196351;28;20008;-46
2022/01/27 14:37:48;;;;;;;;;;;23.00;33.50;;;;;;6191166;28;19932;-45
2022/01/27 14:40:50;;;;;;;;;;;23.10;33.60;;;;;;6213164;28;19931;-45
2022/01/27 14:43:52;;;;;;;;;;;22.60;33.20;;;;;;6224286;28;19932;-43
2022/01/27 14:46:56;;;;;;;;;;;22.70;33.20;;;;;;6233440;28;19947;-43
2022/01/27 14:49:58;;;;;;;;;;;22.90;33.60;;;;;;6228444;28;21575;-43
2022/01/27 14:52:59;;;;;;;;;;;22.70;33.40;;;;;;6220200;28;20031;-42
2022/01/27 14:56:01;;;;;;;;;;;22.70;33.30;;;;;;6220371;28;19959;-44
2022/01/27 14:59:03;;;;;;;;;;;22.60;33.20;;;;;;6216708;28;20026;-44
2022/01/27 15:02:04;;;;;;;;;;;22.60;33.20;;;;;;6182746;28;20303;-42
2022/01/27 15:05:07;;;;;;;;;;;22.50;33.30;;;;;;6201066;28;20009;-42
2022/01/27 15:08:09;;;;;;;;;;;23.00;33.70;;;;;;6202447;28;20738;-42
2022/01/27 15:11:10;;;;;;;;;;;23.20;33.60;;;;;;6217632;28;19932;-43
2022/01/27 15:20:40;;;;;;;;;;;22.80;33.40;;;;;;6217461;28;19953;-43
2022/01/27 15:23:42;;;;;;;;;;;23.20;33.60;;;;;;6216357;28;19931;-45
2022/01/27 15:26:44;;;;;;;;;;;22.90;33.50;;;;;;6179151;28;19974;-43
2022/01/27 15:29:46;;;;;;;;;;;22.70;33.30;;;;;;6207226;28;19938;-44
2022/01/27 15:32:49;;;;;;;;;;;23.20;33.60;;;;;;6208348;28;19932;-43
2022/01/27 15:35:50;;;;;;;;;;;22.60;33.30;;;;;;6191402;28;19932;-43
2022/01/27 15:38:51;;;;;;;;;;;23.20;33.70;;;;;;6193801;28;20053;-43
2022/01/27 15:41:54;;;;;;;;;;;22.70;33.40;;;;;;6212199;28;20005;-43
2022/01/27 15:44:56;;;;;;;;;;;23.00;33.60;;;;;;6186416;28;19932;-45
2022/01/27 15:47:58;;;;;;;;;;;22.80;33.40;;;;;;6210751;28;19935;-43
2022/01/27 15:50:59;;;;;;;;;;;23.40;34.20;;;;;;6213320;28;19938;-46
2022/01/27 15:54:02;;;;;;;;;;;22.70;33.40;;;;;;6199811;28;19932;-43
2022/01/27 15:57:05;;;;;;;;;;;23.00;33.50;;;;;;6219286;28;20032;-43
2022/01/27 16:00:08;;;;;;;;;;;22.80;33.40;;;;;;6215456;28;20003;-44
2022/01/27 16:03:14;;;;;;;;;;;23.00;33.40;;;;;;6184737;27;20278;-43
2022/01/27 16:06:15;;;;;;;;;;;22.70;33.40;;;;;;6208302;28;19932;-42
2022/01/27 16:09:36;;;;;;;;;;;23.20;33.80;;;;;;6176004;28;19975;-42
2022/01/27 16:12:41;;;;;;;;;;;23.00;33.70;;;;;;6208208;28;19962;-43
2022/01/27 16:15:43;;;;;;;;;;;23.10;33.70;;;;;;6224757;28;19938;-43
2022/01/27 16:18:46;;;;;;;;;;;22.50;33.40;;;;;;6226513;27;19932;-42
2022/01/27 16:21:48;;;;;;;;;;;22.70;33.60;;;;;;6211985;28;20062;-45
2022/01/27 16:24:50;;;;;;;;;;;22.60;33.40;;;;;;6215197;28;22662;-42
2022/01/27 16:27:52;;;;;;;;;;;23.00;33.70;;;;;;6221805;28;20088;-42
2022/01/27 16:30:54;;;;;;;;;;;23.20;33.80;;;;;;6214958;28;19932;-42
2022/01/27 16:33:56;;;;;;;;;;;23.00;33.80;;;;;;6194509;28;22002;-43
2022/01/27 16:36:59;;;;;;;;;;;23.20;33.90;;;;;;6209614;27;19938;-44
2022/01/27 16:40:00;;;;;;;;;;;23.10;33.90;;;;;;6217431;28;19938;-44
2022/01/27 16:43:02;;;;;;;;;;;22.60;33.50;;;;;;6213090;28;20093;-43
2022/01/27 16:46:04;;;;;;;;;;;22.90;33.70;;;;;;6225351;28;19938;-44
2022/01/27 16:49:06;;;;;;;;;;;23.00;33.70;;;;;;6220078;28;19975;-42
2022/01/27 16:52:08;;;;;;;;;;;23.00;33.80;;;;;;6223741;27;19931;-43
2022/01/27 16:55:09;;;;;;;;;;;22.70;33.50;;;;;;6221530;28;20058;-43
2022/01/27 16:58:11;;;;;;;;;;;22.60;33.50;;;;;;6245423;28;22284;-43
2022/01/27 17:01:13;;;;;;;;;;;23.00;33.70;;;;;;6239487;28;20629;-43
2022/01/27 17:04:22;;;;;;;;;;;23.10;33.70;;;;;;6234035;28;19936;-43
2022/01/27 17:07:23;;;;;;;;;;;22.70;33.60;;;;;;6226685;28;19932;-42
2022/01/27 17:10:25;;;;;;;;;;;22.40;33.50;;;;;;6238060;28;19967;-42
2022/01/27 17:13:26;;;;;;;;;;;22.70;33.50;;;;;;6250082;28;20041;-44
2022/01/27 17:16:28;;;;;;;;;;;22.90;33.90;;;;;;6238217;28;20054;-59
2022/01/27 17:19:30;;;;;;;;;;;22.70;33.70;;;;;;6233736;28;19939;-43
2022/01/27 17:22:32;;;;;;;;;;;22.60;33.70;;;;;;6251618;28;19932;-43
2022/01/27 17:25:34;;;;;;;;;;;22.60;33.70;;;;;;6255452;28;19932;-45
2022/01/27 17:28:36;;;;;;;;;;;22.60;33.70;;;;;;6245848;28;19931;-43
2022/01/27 17:31:39;;;;;;;;;;;22.50;33.60;;;;;;6235175;28;20070;-42
2022/01/27 17:34:40;;;;;;;;;;;22.60;33.60;;;;;;6254481;28;19981;-44
2022/01/27 17:37:42;;;;;;;;;;;22.70;33.80;;;;;;6274639;28;19923;-43
2022/01/27 17:40:47;;;;;;;;;;;22.70;33.70;;;;;;6273637;28;19946;-44
2022/01/27 17:43:58;;;;;;;;;;;23.10;33.90;;;;;;6273679;28;20040;-42
2022/01/27 17:47:00;;;;;;;;;;;23.00;33.90;;;;;;6274884;28;20023;-44
2022/01/27 17:50:03;;;;;;;;;;;22.60;33.60;;;;;;6272392;28;20786;-46
2022/01/27 17:53:05;;;;;;;;;;;23.00;33.90;;;;;;6269204;28;19938;-43
2022/01/27 17:56:06;;;;;;;;;;;22.90;33.80;;;;;;6265423;28;20058;-45
2022/01/27 17:59:08;;;;;;;;;;;22.90;33.80;;;;;;6268500;28;19963;-44
2022/01/27 18:02:10;;;;;;;;;;;22.70;33.70;;;;;;6275850;28;22295;-43
2022/01/27 18:05:12;;;;;;;;;;;22.90;33.80;;;;;;6280510;28;19981;-45
2022/01/27 18:08:13;;;;;;;;;;;23.30;33.90;;;;;;6261534;28;19966;-46
2022/01/27 18:11:16;;;;;;;;;;;22.90;33.90;;;;;;6279786;28;20980;-42
2022/01/27 18:14:19;;;;;;;;;;;23.00;33.90;;;;;;6275415;28;19943;-44
2022/01/27 18:17:20;;;;;;;;;;;22.80;33.90;;;;;;6274100;28;19935;-44